OISY 
Yasouj Airport
Iran 
ICAOStatus
OISYOperational
LatitudeLongitude
30° 42' 1" N51° 32' 42" E
30.70050051.545101
Local Time (DST+5)UTC (GMT+4)
04-23-2014 09:26 pm04-23-2014 16:56
Sunrise-SunsetLocalUTC
Begin Civil Twilight06:01 am01:31
Sunrise06:26 am01:56
Sunset07:38 pm15:08
End Civil Twilight08:03 pm15:33

Current Weather

METARObservedFlight Conditions

OISY 231600Z 00000KT CAVOK 15/10 Q1022

Wed, Apr 23, 2014 @ 16:00 UTC(Z)

(56 Minutes ago)

VFR

(Visual Flight Rules)

WindVisibilityCloudsConditions
Calm
10 km or more
  • Clear skies
  • No significant weather
TemperaturesReadingsPrecipitation
Current Temp15°C (59°F)
Dewpoint10°C (50°F)
Humidity72%
Altimeter30.18"Hg
Sea Level Pressure1022mb
Field Elevation5941.6'
None Recorded

Additional weather within a 185.2km radius of OISY

Location METAR
OISS

163.5km S (142°)

26 minutes ago
OIAG

178.5km W (272°)

56 minutes ago
VFR VFR    MVFR MVFR    IFR IFR    LIFR LIFR    Unknown Unknown

Previous 24 hour Weather Graphs

  Loading...

CheckWX.com is intended as a tool to help pilots better visualize weather data.   It is not intended as a substitute for an official weather briefing obtained from a Flight Service Station.
CheckWX.com does not meet the FAA requirements for an official pre-flight weather briefing.   Therefore, it's important that pilots still call and obtain an official FSS pre-flight weather briefing.